Observation data for Paducah on 12/09/2018      Previous  Date       Current Mesonet Observations  Soil Data  Daily Summary Page  Observations in Plain Language
KPAD 090600Z 29007KT M03/M05 A3032 RMK A01 T10271047  RH  086%=      5-min Rain = 0
KPAD 090605Z 29007KT M03/M05 A3032 RMK A01 T10271047  RH  086%=      5-min Rain = 0
KPAD 090610Z 28007KT M03/M05 A3032 RMK A01 T10281048  RH  086%=      5-min Rain = 0
KPAD 090615Z 28008KT M03/M05 A3032 RMK A01 T10271046  RH  087%=      5-min Rain = 0
KPAD 090620Z 29007KT M03/M05 A3032 RMK A01 T10251046  RH  086%=      5-min Rain = 0
KPAD 090625Z 29008KT M03/M05 A3032 RMK A01 T10261047  RH  086%=      5-min Rain = 0
KPAD 090630Z 29006KT M03/M05 A3032 RMK A01 T10271048  RH  086%=      5-min Rain = 0
KPAD 090635Z 30007KT M03/M05 A3032 RMK A01 T10291050  RH  086%=      5-min Rain = 0
KPAD 090640Z 29008KT M03/M05 A3032 RMK A01 T10321052  RH  086%=      5-min Rain = 0
KPAD 090645Z 28008KT M03/M05 A3032 RMK A01 T10341053  RH  087%=      5-min Rain = 0
KPAD 090650Z 28009KT M03/M05 A3032 RMK A01 T10331051  RH  087%=      5-min Rain = 0
KPAD 090655Z 29008KT M03/M05 A3032 RMK A01 T10331053  RH  086%=      5-min Rain = 0
KPAD 090700Z 30007KT M03/M05 A3032 RMK A01 T10341053  RH  087%=      5-min Rain = 0
KPAD 090705Z 31007KT M03/M05 A3032 RMK A01 T10341053  RH  087%=      5-min Rain = 0
KPAD 090710Z 30007KT M03/M05 A3031 RMK A01 T10341054  RH  087%=      5-min Rain = 0
KPAD 090715Z 30007KT M04/M05 A3031 RMK A01 T10351054  RH  087%=      5-min Rain = 0
KPAD 090720Z 30008KT M04/M06 A3031 RMK A01 T10361055  RH  087%=      5-min Rain = 0
KPAD 090725Z 30009KT M04/M05 A3031 RMK A01 T10351053  RH  088%=      5-min Rain = 0
KPAD 090730Z 30009KT M04/M05 A3032 RMK A01 T10351054  RH  087%=      5-min Rain = 0
KPAD 090735Z 30008KT M04/M06 A3032 RMK A01 T10361055  RH  087%=      5-min Rain = 0
KPAD 090740Z 29008KT M04/M06 A3032 RMK A01 T10361056  RH  087%=      5-min Rain = 0
KPAD 090745Z 30008KT M04/M06 A3032 RMK A01 T10361056  RH  087%=      5-min Rain = 0
KPAD 090750Z 30008KT M04/M06 A3032 RMK A01 T10371056  RH  087%=      5-min Rain = 0
KPAD 090755Z 30008KT M04/M06 A3032 RMK A01 T10371056  RH  087%=      5-min Rain = 0
KPAD 090800Z 31006KT M04/M06 A3032 RMK A01 T10361056  RH  086%=      5-min Rain = 0
KPAD 090805Z 30008KT M04/M06 A3032 RMK A01 T10371058  RH  086%=      5-min Rain = 0
KPAD 090810Z 30008KT M04/M06 A3032 RMK A01 T10381057  RH  086%=      5-min Rain = 0
KPAD 090815Z 30008KT M04/M06 A3032 RMK A01 T10381058  RH  086%=      5-min Rain = 0
KPAD 090820Z 31007KT M04/M06 A3032 RMK A01 T10391059  RH  086%=      5-min Rain = 0
KPAD 090825Z 31007KT M04/M06 A3032 RMK A01 T10401060  RH  086%=      5-min Rain = 0
KPAD 090830Z 31008KT M04/M06 A3032 RMK A01 T10381059  RH  086%=      5-min Rain = 0
KPAD 090835Z 32008KT M04/M06 A3032 RMK A01 T10371059  RH  085%=      5-min Rain = 0
KPAD 090840Z 32007KT M04/M06 A3032 RMK A01 T10351060  RH  083%=      5-min Rain = 0
KPAD 090845Z 32007KT M04/M06 A3032 RMK A01 T10351062  RH  082%=      5-min Rain = 0
KPAD 090850Z 32008KT M04/M06 A3032 RMK A01 T10351063  RH  081%=      5-min Rain = 0
KPAD 090855Z 32009KT M03/M06 A3032 RMK A01 T10331064  RH  079%=      5-min Rain = 0
KPAD 090900Z 32008KT M03/M07 A3032 RMK A01 T10321065  RH  078%=      5-min Rain = 0
KPAD 090905Z 33008KT M03/M07 A3031 RMK A01 T10331066  RH  078%=      5-min Rain = 0
KPAD 090910Z 32009KT M03/M07 A3031 RMK A01 T10331066  RH  078%=      5-min Rain = 0
KPAD 090915Z 32008KT M04/M07 A3031 RMK A01 T10351067  RH  078%=      5-min Rain = 0
KPAD 090920Z 32009KT M04/M07 A3031 RMK A01 T10351067  RH  079%=      5-min Rain = 0
KPAD 090925Z 32009KT M04/M07 A3031 RMK A01 T10361068  RH  079%=      5-min Rain = 0
KPAD 090930Z 32008KT M04/M07 A3031 RMK A01 T10371068  RH  079%=      5-min Rain = 0
KPAD 090935Z 32009KT M04/M07 A3031 RMK A01 T10351068  RH  078%=      5-min Rain = 0
KPAD 090940Z 32009KT M04/M07 A3031 RMK A01 T10351068  RH  078%=      5-min Rain = 0
KPAD 090945Z 32008KT M04/M07 A3032 RMK A01 T10361069  RH  078%=      5-min Rain = 0
KPAD 090950Z 32009KT M04/M07 A3031 RMK A01 T10381069  RH  079%=      5-min Rain = 0
KPAD 090955Z 32009KT M04/M07 A3031 RMK A01 T10381069  RH  079%=      5-min Rain = 0
KPAD 091000Z 32008KT M04/M07 A3031 RMK A01 T10381068  RH  079%=      5-min Rain = 0
KPAD 091005Z 32008KT M04/M07 A3031 RMK A01 T10371069  RH  078%=      5-min Rain = 0
KPAD 091010Z 32009KT M04/M07 A3031 RMK A01 T10351071  RH  076%=      5-min Rain = 0
KPAD 091015Z 32009KT M03/M07 A3031 RMK A01 T10341071  RH  076%=      5-min Rain = 0
KPAD 091020Z 32009KT M03/M07 A3031 RMK A01 T10341071  RH  076%=      5-min Rain = 0
KPAD 091025Z 32009KT M03/M07 A3031 RMK A01 T10341071  RH  076%=      5-min Rain = 0
KPAD 091030Z 32009KT M03/M07 A3032 RMK A01 T10331071  RH  075%=      5-min Rain = 0
KPAD 091035Z 31008KT M04/M07 A3032 RMK A01 T10351071  RH  076%=      5-min Rain = 0
KPAD 091040Z 30009KT M04/M07 A3032 RMK A01 T10411071  RH  080%=      5-min Rain = 0
KPAD 091045Z 30008KT M04/M07 A3032 RMK A01 T10441069  RH  083%=      5-min Rain = 0
KPAD 091050Z 30008KT M04/M07 A3032 RMK A01 T10441068  RH  084%=      5-min Rain = 0
KPAD 091055Z 30008KT M05/M07 A3032 RMK A01 T10451068  RH  084%=      5-min Rain = 0
KPAD 091100Z 30008KT M05/M07 A3032 RMK A01 T10461068  RH  085%=      5-min Rain = 0
KPAD 091105Z 30008KT M05/M07 A3032 RMK A01 T10461068  RH  085%=      5-min Rain = 0
KPAD 091110Z 30008KT M05/M07 A3032 RMK A01 T10461068  RH  085%=      5-min Rain = 0
KPAD 091115Z 30009KT M05/M07 A3032 RMK A01 T10461067  RH  085%=      5-min Rain = 0
KPAD 091120Z 30008KT M05/M07 A3032 RMK A01 T10451068  RH  084%=      5-min Rain = 0
KPAD 091125Z 31007KT M05/M07 A3033 RMK A01 T10461069  RH  084%=      5-min Rain = 0
KPAD 091130Z 31007KT M05/M07 A3033 RMK A01 T10461069  RH  084%=      5-min Rain = 0
KPAD 091135Z 31008KT M05/M07 A3033 RMK A01 T10471069  RH  084%=      5-min Rain = 0
KPAD 091140Z 32008KT M05/M07 A3033 RMK A01 T10451069  RH  084%=      5-min Rain = 0
KPAD 091145Z 32008KT M04/M07 A3033 RMK A01 T10421070  RH  081%=      5-min Rain = 0
KPAD 091150Z 32009KT M04/M07 A3033 RMK A01 T10401070  RH  079%=      5-min Rain = 0
KPAD 091155Z 32009KT M04/M07 A3033 RMK A01 T10371071  RH  078%=      5-min Rain = 0
KPAD 091200Z 32009KT M04/M07 A3033 RMK A01 T10361072  RH  077%=      5-min Rain = 0
KPAD 091205Z 32009KT M04/M07 A3033 RMK A01 T10371072  RH  077%=      5-min Rain = 0
KPAD 091210Z 32009KT M04/M07 A3033 RMK A01 T10371072  RH  077%=      5-min Rain = 0
KPAD 091215Z 32008KT M04/M07 A3033 RMK A01 T10371072  RH  076%=      5-min Rain = 0
KPAD 091220Z 31009KT M04/M07 A3033 RMK A01 T10371072  RH  077%=      5-min Rain = 0
KPAD 091225Z 32009KT M04/M07 A3034 RMK A01 T10371073  RH  076%=      5-min Rain = 0
KPAD 091230Z 32008KT M04/M07 A3034 RMK A01 T10361074  RH  075%=      5-min Rain = 0
KPAD 091235Z 32009KT M03/M07 A3034 RMK A01 T10341074  RH  074%=      5-min Rain = 0
KPAD 091240Z 31008KT M04/M08 A3034 RMK A01 T10351075  RH  074%=      5-min Rain = 0
KPAD 091245Z 31008KT M04/M08 A3035 RMK A01 T10391075  RH  076%=      5-min Rain = 0
KPAD 091250Z 31008KT M04/M07 A3035 RMK A01 T10421074  RH  078%=      5-min Rain = 0
KPAD 091255Z 31008KT M04/M07 A3035 RMK A01 T10421074  RH  078%=      5-min Rain = 0
KPAD 091300Z 31008KT M04/M08 A3035 RMK A01 T10431075  RH  078%=      5-min Rain = 0
KPAD 091305Z 30007KT M04/M08 A3035 RMK A01 T10431075  RH  078%=      5-min Rain = 0
KPAD 091310Z 30008KT M05/M08 A3035 RMK A01 T10451075  RH  079%=      5-min Rain = 0
KPAD 091315Z 30007KT M05/M08 A3035 RMK A01 T10451075  RH  079%=      5-min Rain = 0
KPAD 091320Z 30008KT M05/M08 A3036 RMK A01 T10461075  RH  081%=      5-min Rain = 0
KPAD 091325Z 30007KT M05/M08 A3036 RMK A01 T10471075  RH  081%=      5-min Rain = 0
KPAD 091330Z 30007KT M05/M07 A3036 RMK A01 T10481074  RH  082%=      5-min Rain = 0
KPAD 091335Z 30008KT M05/M07 A3036 RMK A01 T10471074  RH  081%=      5-min Rain = 0
KPAD 091340Z 30007KT M05/M07 A3036 RMK A01 T10461074  RH  081%=      5-min Rain = 0
KPAD 091345Z 30007KT M05/M07 A3036 RMK A01 T10451074  RH  080%=      5-min Rain = 0
KPAD 091350Z 30007KT M05/M07 A3036 RMK A01 T10451074  RH  080%=      5-min Rain = 0
KPAD 091355Z 30007KT M04/M07 A3036 RMK A01 T10431073  RH  079%=      5-min Rain = 0
KPAD 091400Z 30008KT M04/M07 A3037 RMK A01 T10401073  RH  078%=      5-min Rain = 0
KPAD 091405Z 30008KT M04/M07 A3037 RMK A01 T10401072  RH  079%=      5-min Rain = 0
KPAD 091410Z 30008KT M04/M07 A3037 RMK A01 T10391071  RH  078%=      5-min Rain = 0
KPAD 091415Z 31006KT M04/M07 A3037 RMK A01 T10381070  RH  078%=      5-min Rain = 0
KPAD 091420Z 31005KT M04/M07 A3037 RMK A01 T10361069  RH  078%=      5-min Rain = 0
KPAD 091425Z 30005KT M04/M07 A3037 RMK A01 T10351069  RH  077%=      5-min Rain = 0
KPAD 091430Z 30005KT M03/M07 A3038 RMK A01 T10341067  RH  078%=      5-min Rain = 0
KPAD 091435Z 30006KT M03/M07 A3038 RMK A01 T10321066  RH  077%=      5-min Rain = 0
KPAD 091440Z 30006KT M03/M06 A3038 RMK A01 T10281064  RH  076%=      5-min Rain = 0
KPAD 091445Z 30005KT M03/M06 A3038 RMK A01 T10261063  RH  076%=      5-min Rain = 0
KPAD 091450Z 30007KT M03/M06 A3038 RMK A01 T10251062  RH  076%=      5-min Rain = 0
KPAD 091455Z 31005KT M03/M06 A3039 RMK A01 T10251062  RH  076%=      5-min Rain = 0
KPAD 091500Z 31004KT M02/M06 A3039 RMK A01 T10241061  RH  076%=      5-min Rain = 0
KPAD 091505Z 30005KT M02/M06 A3039 RMK A01 T10221060  RH  076%=      5-min Rain = 0
KPAD 091510Z 30005KT M02/M06 A3039 RMK A01 T10211061  RH  074%=      5-min Rain = 0
KPAD 091515Z 30005KT M02/M06 A3039 RMK A01 T10181059  RH  074%=      5-min Rain = 0
KPAD 091520Z 30005KT M02/M06 A3039 RMK A01 T10161057  RH  074%=      5-min Rain = 0
KPAD 091525Z 31004KT M01/M06 A304 RMK A01 T10141056  RH  074%=      5-min Rain = 0
KPAD 091530Z 30004KT M01/M05 A304 RMK A01 T10121054  RH  073%=      5-min Rain = 0
KPAD 091535Z 31005KT M01/M05 A304 RMK A01 T10101052  RH  074%=      5-min Rain = 0
KPAD 091540Z 31006KT M01/M05 A304 RMK A01 T10081052  RH  073%=      5-min Rain = 0
KPAD 091545Z 31006KT M01/M05 A3041 RMK A01 T10061052  RH  071%=      5-min Rain = 0
KPAD 091550Z 31007KT M00/M06 A3041 RMK A01 T10041055  RH  069%=      5-min Rain = 0
KPAD 091555Z 32008KT M00/M05 A3041 RMK A01 T10021054  RH  068%=      5-min Rain = 0
KPAD 091600Z 32007KT M00/M05 A3041 RMK A01 T10021051  RH  070%=      5-min Rain = 0
KPAD 091605Z 33008KT M00/M05 A3041 RMK A01 T10021050  RH  070%=      5-min Rain = 0
KPAD 091610Z 32007KT M00/M05 A3041 RMK A01 T10011050  RH  070%=      5-min Rain = 0
KPAD 091615Z 32008KT 00/05 A3041 RMK A01 T00000-49  RH  069%=      5-min Rain = 0
KPAD 091620Z 32007KT 00/M05 A3041 RMK A01 T00021048  RH  069%=      5-min Rain = 0
KPAD 091625Z 32006KT 00/M05 A3041 RMK A01 T00041048  RH  069%=      5-min Rain = 0
KPAD 091630Z 32006KT 01/M05 A3041 RMK A01 T00051047  RH  068%=      5-min Rain = 0
KPAD 091635Z 31006KT 01/M05 A3041 RMK A01 T00071046  RH  068%=      5-min Rain = 0
KPAD 091640Z 31005KT 01/M04 A3041 RMK A01 T00091044  RH  068%=      5-min Rain = 0
KPAD 091645Z 32005KT 01/M04 A3041 RMK A01 T00111043  RH  068%=      5-min Rain = 0.01
KPAD 091650Z 32006KT 01/M04 A3041 RMK A01 T00111044  RH  067%=      5-min Rain = 0
KPAD 091655Z 32006KT 01/M04 A3041 RMK A01 T00131044  RH  066%=      5-min Rain = 0
KPAD 091700Z 32006KT 01/M04 A3041 RMK A01 T00141043  RH  066%=      5-min Rain = 0
KPAD 091705Z 32006KT 02/M04 A3041 RMK A01 T00151044  RH  065%=      5-min Rain = 0.01
KPAD 091710Z 32006KT 02/M04 A3041 RMK A01 T00171042  RH  065%=      5-min Rain = 0
KPAD 091715Z 32006KT 02/M04 A304 RMK A01 T00171041  RH  065%=      5-min Rain = 0
KPAD 091720Z 32006KT 02/M04 A304 RMK A01 T00191041  RH  065%=      5-min Rain = 0.01
KPAD 091725Z 32007KT 02/M04 A304 RMK A01 T00211041  RH  064%=      5-min Rain = 0
KPAD 091730Z 31007KT 02/M04 A304 RMK A01 T00211044  RH  062%=      5-min Rain = 0
KPAD 091735Z 31006KT 02/M04 A304 RMK A01 T00231043  RH  062%=      5-min Rain = 0
KPAD 091740Z 32006KT 03/M04 A304 RMK A01 T00251039  RH  063%=      5-min Rain = 0.01
KPAD 091745Z 32005KT 03/M04 A304 RMK A01 T00261039  RH  063%=      5-min Rain = 0
KPAD 091750Z 32005KT 03/M04 A304 RMK A01 T00271041  RH  061%=      5-min Rain = 0
KPAD 091755Z 32007KT 03/M05 A304 RMK A01 T00281046  RH  059%=      5-min Rain = 0.01
KPAD 091800Z 32006KT 03/M05 A3039 RMK A01 T00281046  RH  059%=      5-min Rain = 0
KPAD 091805Z 32006KT 03/M04 A3039 RMK A01 T00281043  RH  060%=      5-min Rain = 0.01
KPAD 091810Z 32007KT 03/M04 A3039 RMK A01 T00291042  RH  059%=      5-min Rain = 0
KPAD 091815Z 32007KT 03/M04 A3038 RMK A01 T00311038  RH  061%=      5-min Rain = 0
KPAD 091820Z 31006KT 03/M04 A3038 RMK A01 T00331040  RH  059%=      5-min Rain = 0.01
KPAD 091825Z 32007KT 03/M04 A3038 RMK A01 T00341040  RH  059%=      5-min Rain = 0
KPAD 091830Z 31006KT 04/M04 A3038 RMK A01 T00361040  RH  058%=      5-min Rain = 0
KPAD 091835Z 31007KT 04/M04 A3038 RMK A01 T00361040  RH  058%=      5-min Rain = 0.01
KPAD 091840Z 30006KT 04/M03 A3038 RMK A01 T00371033  RH  061%=      5-min Rain = 0
KPAD 091845Z 30006KT 04/M03 A3038 RMK A01 T00381033  RH  060%=      5-min Rain = 0.01
KPAD 091850Z 31005KT 04/M03 A3037 RMK A01 T00401030  RH  061%=      5-min Rain = 0.01
KPAD 091855Z 32006KT 04/M03 A3037 RMK A01 T00401034  RH  059%=      5-min Rain = 0
KPAD 091900Z 31007KT 04/M04 A3037 RMK A01 T00411037  RH  057%=      5-min Rain = 0.01
KPAD 091905Z 31006KT 04/M04 A3037 RMK A01 T00411037  RH  057%=      5-min Rain = 0.01
KPAD 091910Z 32006KT 04/M04 A3036 RMK A01 T00431035  RH  057%=      5-min Rain = 0.02
KPAD 091915Z 32007KT 04/M04 A3036 RMK A01 T00431036  RH  057%=      5-min Rain = 0.03
KPAD 091920Z 31007KT 04/M04 A3036 RMK A01 T00431036  RH  056%=      5-min Rain = 0.03
KPAD 091925Z 32006KT 05/M03 A3036 RMK A01 T00451033  RH  057%=      5-min Rain = 0.02
KPAD 091930Z 32006KT 05/M04 A3036 RMK A01 T00461037  RH  055%=      5-min Rain = 0.04
KPAD 091935Z 32007KT 05/M04 A3036 RMK A01 T00461036  RH  056%=      5-min Rain = 0.01
KPAD 091940Z 32006KT 05/M04 A3036 RMK A01 T00461038  RH  055%=      5-min Rain = 0
KPAD 091945Z 32007KT 05/M04 A3036 RMK A01 T00491035  RH  055%=      5-min Rain = 0
KPAD 091950Z 32006KT 05/M04 A3035 RMK A01 T00491036  RH  055%=      5-min Rain = 0
KPAD 091955Z 32006KT 05/M03 A3035 RMK A01 T00511032  RH  055%=      5-min Rain = 0
KPAD 092000Z 31006KT 05/M04 A3035 RMK A01 T00521035  RH  054%=      5-min Rain = 0
KPAD 092005Z 32006KT 05/M03 A3035 RMK A01 T00531033  RH  054%=      5-min Rain = 0
KPAD 092010Z 31006KT 05/M04 A3034 RMK A01 T00531036  RH  053%=      5-min Rain = 0
KPAD 092015Z 31006KT 05/M04 A3034 RMK A01 T00531038  RH  052%=      5-min Rain = 0
KPAD 092020Z 31007KT 05/M04 A3034 RMK A01 T00541038  RH  052%=      5-min Rain = 0
KPAD 092025Z 31007KT 05/M04 A3035 RMK A01 T00541035  RH  053%=      5-min Rain = 0
KPAD 092030Z 32007KT 06/M03 A3035 RMK A01 T00561033  RH  053%=      5-min Rain = 0
KPAD 092035Z 31007KT 06/M04 A3035 RMK A01 T00561038  RH  051%=      5-min Rain = 0
KPAD 092040Z 32007KT 06/M04 A3035 RMK A01 T00571037  RH  051%=      5-min Rain = 0
KPAD 092045Z 31006KT 06/M04 A3035 RMK A01 T00591036  RH  051%=      5-min Rain = 0
KPAD 092050Z 32006KT 06/M04 A3034 RMK A01 T00601038  RH  050%=      5-min Rain = 0
KPAD 092055Z 32006KT 06/M04 A3034 RMK A01 T00601038  RH  050%=      5-min Rain = 0
KPAD 092100Z 32004KT 06/M04 A3034 RMK A01 T00611039  RH  049%=      5-min Rain = 0
KPAD 092105Z 32006KT 06/M04 A3034 RMK A01 T00631038  RH  049%=      5-min Rain = 0
KPAD 092110Z 31006KT 06/M04 A3034 RMK A01 T00631040  RH  048%=      5-min Rain = 0
KPAD 092115Z 30006KT 06/M04 A3035 RMK A01 T00641041  RH  047%=      5-min Rain = 0
KPAD 092120Z 31005KT 07/M04 A3035 RMK A01 T00651039  RH  047%=      5-min Rain = 0
KPAD 092125Z 30004KT 07/M04 A3035 RMK A01 T00671039  RH  047%=      5-min Rain = 0
KPAD 092130Z 31004KT 07/M04 A3035 RMK A01 T00671041  RH  046%=      5-min Rain = 0
KPAD 092135Z 30005KT 07/M04 A3035 RMK A01 T00671039  RH  047%=      5-min Rain = 0
KPAD 092140Z 29005KT 07/M04 A3035 RMK A01 T00671039  RH  047%=      5-min Rain = 0
KPAD 092145Z 29005KT 07/M04 A3035 RMK A01 T00671039  RH  047%=      5-min Rain = 0
KPAD 092150Z 28005KT 07/M04 A3035 RMK A01 T00671040  RH  047%=      5-min Rain = 0
KPAD 092155Z 30006KT 07/M04 A3035 RMK A01 T00661041  RH  047%=      5-min Rain = 0
KPAD 092200Z 30006KT 07/M04 A3034 RMK A01 T00651041  RH  047%=      5-min Rain = 0
KPAD 092205Z 30005KT 07/M04 A3034 RMK A01 T00661042  RH  046%=      5-min Rain = 0
KPAD 092210Z 29006KT 07/M04 A3034 RMK A01 T00661038  RH  048%=      5-min Rain = 0
KPAD 092215Z 30004KT 07/M04 A3035 RMK A01 T00651041  RH  047%=      5-min Rain = 0
KPAD 092220Z 31005KT 07/M04 A3034 RMK A01 T00651040  RH  047%=      5-min Rain = 0
KPAD 092225Z 30005KT 06/M04 A3034 RMK A01 T00641044  RH  046%=      5-min Rain = 0
KPAD 092230Z 29004KT 06/M04 A3034 RMK A01 T00641042  RH  047%=      5-min Rain = 0
KPAD 092235Z 29004KT 06/M04 A3034 RMK A01 T00641041  RH  047%=      5-min Rain = 0
KPAD 092240Z 29005KT 06/M04 A3034 RMK A01 T00621039  RH  048%=      5-min Rain = 0
KPAD 092245Z 28006KT 06/M04 A3034 RMK A01 T00611037  RH  050%=      5-min Rain = 0
KPAD 092250Z 27005KT 06/M04 A3034 RMK A01 T00591035  RH  051%=      5-min Rain = 0
KPAD 092255Z 27004KT 06/M03 A3034 RMK A01 T00581028  RH  055%=      5-min Rain = 0
KPAD 092300Z 26005KT 06/M03 A3034 RMK A01 T00571030  RH  054%=      5-min Rain = 0
KPAD 092305Z 26006KT 05/M03 A3034 RMK A01 T00541030  RH  055%=      5-min Rain = 0
KPAD 092310Z 26005KT 05/M03 A3034 RMK A01 T00501030  RH  057%=      5-min Rain = 0
KPAD 092315Z 26005KT 05/M03 A3034 RMK A01 T00461030  RH  058%=      5-min Rain = 0
KPAD 092320Z 25006KT 04/M03 A3034 RMK A01 T00421031  RH  059%=      5-min Rain = 0
KPAD 092325Z 25006KT 04/M03 A3034 RMK A01 T00381032  RH  060%=      5-min Rain = 0
KPAD 092330Z 25006KT 03/M03 A3034 RMK A01 T00341033  RH  062%=      5-min Rain = 0
KPAD 092335Z 25007KT 03/M03 A3033 RMK A01 T00301033  RH  064%=      5-min Rain = 0
KPAD 092340Z 25007KT 03/M03 A3033 RMK A01 T00261032  RH  066%=      5-min Rain = 0
KPAD 092345Z 25007KT 02/M03 A3033 RMK A01 T00241033  RH  066%=      5-min Rain = 0
KPAD 092350Z 26008KT 02/M03 A3033 RMK A01 T00241034  RH  066%=      5-min Rain = 0
KPAD 092355Z 26008KT 02/M04 A3033 RMK A01 T00231035  RH  065%=      5-min Rain = 0
KPAD 100000Z 26008KT 02/M04 A3033 RMK A01 T00241037  RH  065%=      5-min Rain = 0
KPAD 100005Z 26008KT 02/M04 A3033 RMK A01 T00241035  RH  065%=      5-min Rain = 0
KPAD 100010Z 26008KT 02/M03 A3034 RMK A01 T00241030  RH  068%=      5-min Rain = 0
KPAD 100015Z 26008KT 02/M03 A3034 RMK A01 T00241025  RH  071%=      5-min Rain = 0
KPAD 100020Z 26008KT 02/M02 A3034 RMK A01 T00221023  RH  073%=      5-min Rain = 0
KPAD 100025Z 26008KT 02/M02 A3035 RMK A01 T00211021  RH  074%=      5-min Rain = 0
KPAD 100030Z 26008KT 02/M02 A3035 RMK A01 T00201021  RH  075%=      5-min Rain = 0
KPAD 100035Z 26009KT 02/M02 A3035 RMK A01 T00191020  RH  076%=      5-min Rain = 0
KPAD 100040Z 26009KT 02/M02 A3035 RMK A01 T00221019  RH  075%=      5-min Rain = 0
KPAD 100045Z 26008KT 02/M02 A3035 RMK A01 T00221020  RH  074%=      5-min Rain = 0
KPAD 100050Z 26009KT 02/M02 A3035 RMK A01 T00231019  RH  074%=      5-min Rain = 0
KPAD 100055Z 27009KT 02/M02 A3035 RMK A01 T00221019  RH  075%=      5-min Rain = 0
KPAD 100100Z 27009KT 02/M02 A3036 RMK A01 T00201019  RH  076%=      5-min Rain = 0
KPAD 100105Z 26009KT 02/M02 A3035 RMK A01 T00191017  RH  078%=      5-min Rain = 0
KPAD 100110Z 27009KT 02/M02 A3036 RMK A01 T00191017  RH  078%=      5-min Rain = 0
KPAD 100115Z 27009KT 02/M02 A3036 RMK A01 T00181017  RH  078%=      5-min Rain = 0
KPAD 100120Z 27009KT 02/M02 A3036 RMK A01 T00181017  RH  078%=      5-min Rain = 0
KPAD 100125Z 27009KT 02/M02 A3036 RMK A01 T00171018  RH  078%=      5-min Rain = 0
KPAD 100130Z 27008KT 02/M02 A3036 RMK A01 T00161018  RH  078%=      5-min Rain = 0
KPAD 100135Z 27008KT 01/M02 A3036 RMK A01 T00141019  RH  079%=      5-min Rain = 0
KPAD 100140Z 27008KT 01/M02 A3036 RMK A01 T00141020  RH  079%=      5-min Rain = 0
KPAD 100145Z 27008KT 01/M02 A3036 RMK A01 T00131020  RH  079%=      5-min Rain = 0
KPAD 100150Z 27008KT 01/M02 A3036 RMK A01 T00111021  RH  080%=      5-min Rain = 0
KPAD 100155Z 27008KT 01/M02 A3036 RMK A01 T00101021  RH  080%=      5-min Rain = 0
KPAD 100200Z 27009KT 01/M02 A3036 RMK A01 T00091021  RH  081%=      5-min Rain = 0
KPAD 100205Z 27009KT 01/M02 A3036 RMK A01 T00091022  RH  081%=      5-min Rain = 0
KPAD 100210Z 27008KT 01/M02 A3036 RMK A01 T00081022  RH  081%=      5-min Rain = 0
KPAD 100215Z 27009KT 01/M02 A3036 RMK A01 T00071023  RH  081%=      5-min Rain = 0
KPAD 100220Z 27008KT 01/M02 A3036 RMK A01 T00071023  RH  081%=      5-min Rain = 0
KPAD 100225Z 27008KT 01/M02 A3036 RMK A01 T00071023  RH  081%=      5-min Rain = 0
KPAD 100230Z 26008KT 01/M02 A3036 RMK A01 T00071024  RH  080%=      5-min Rain = 0
KPAD 100235Z 26008KT 01/M02 A3036 RMK A01 T00071024  RH  080%=      5-min Rain = 0
KPAD 100240Z 26008KT 01/M02 A3036 RMK A01 T00081024  RH  080%=      5-min Rain = 0
KPAD 100245Z 26008KT 01/M03 A3036 RMK A01 T00081025  RH  079%=      5-min Rain = 0
KPAD 100250Z 26007KT 01/M03 A3036 RMK A01 T00071026  RH  079%=      5-min Rain = 0
KPAD 100255Z 27008KT 01/M03 A3036 RMK A01 T00071026  RH  079%=      5-min Rain = 0
KPAD 100300Z 27008KT 01/M03 A3036 RMK A01 T00061026  RH  079%=      5-min Rain = 0
KPAD 100305Z 27008KT 01/M03 A3036 RMK A01 T00051027  RH  080%=      5-min Rain = 0
KPAD 100310Z 28008KT 01/M03 A3036 RMK A01 T00051026  RH  080%=      5-min Rain = 0
KPAD 100315Z 28008KT 01/M03 A3036 RMK A01 T00061026  RH  080%=      5-min Rain = 0
KPAD 100320Z 28007KT 01/M03 A3036 RMK A01 T00071026  RH  079%=      5-min Rain = 0
KPAD 100325Z 28008KT 01/M03 A3036 RMK A01 T00061027  RH  079%=      5-min Rain = 0
KPAD 100330Z 28008KT 01/M03 A3036 RMK A01 T00061027  RH  079%=      5-min Rain = 0
KPAD 100335Z 28009KT 01/M03 A3037 RMK A01 T00051026  RH  080%=      5-min Rain = 0
KPAD 100340Z 28009KT 01/M03 A3037 RMK A01 T00061026  RH  080%=      5-min Rain = 0
KPAD 100345Z 28009KT 01/M03 A3037 RMK A01 T00071026  RH  080%=      5-min Rain = 0
KPAD 100350Z 28009KT 01/M03 A3037 RMK A01 T00091025  RH  078%=      5-min Rain = 0
KPAD 100355Z 28008KT 01/M03 A3037 RMK A01 T00101026  RH  078%=      5-min Rain = 0
KPAD 100400Z 28009KT 01/M03 A3037 RMK A01 T00101026  RH  077%=      5-min Rain = 0
KPAD 100405Z 28009KT 01/M03 A3037 RMK A01 T00091026  RH  078%=      5-min Rain = 0
KPAD 100410Z 27009KT 01/M03 A3036 RMK A01 T00071027  RH  079%=      5-min Rain = 0
KPAD 100415Z 27009KT 01/M03 A3036 RMK A01 T00081026  RH  079%=      5-min Rain = 0
KPAD 100420Z 27009KT 01/M03 A3036 RMK A01 T00081027  RH  078%=      5-min Rain = 0
KPAD 100425Z 27009KT 01/M03 A3036 RMK A01 T00071027  RH  079%=      5-min Rain = 0
KPAD 100430Z 27009KT 01/M03 A3036 RMK A01 T00071027  RH  079%=      5-min Rain = 0
KPAD 100435Z 27009KT 01/M03 A3036 RMK A01 T00071027  RH  079%=      5-min Rain = 0
KPAD 100440Z 27009KT 01/M03 A3036 RMK A01 T00071026  RH  079%=      5-min Rain = 0
KPAD 100445Z 27009KT 01/M03 A3036 RMK A01 T00081026  RH  078%=      5-min Rain = 0
KPAD 100450Z 27009KT 01/M03 A3036 RMK A01 T00081026  RH  079%=      5-min Rain = 0
KPAD 100455Z 28010KT 01/M03 A3036 RMK A01 T00081026  RH  079%=      5-min Rain = 0
KPAD 100500Z 27009KT 01/M03 A3036 RMK A01 T00091025  RH  078%=      5-min Rain = 0
KPAD 100505Z 28010KT 01/M03 A3036 RMK A01 T00091026  RH  078%=      5-min Rain = 0
KPAD 100510Z 28010KT 01/M03 A3036 RMK A01 T00091026  RH  078%=      5-min Rain = 0
KPAD 100515Z 28009KT 01/M03 A3036 RMK A01 T00081026  RH  078%=      5-min Rain = 0
KPAD 100520Z 27009KT 01/M03 A3036 RMK A01 T00081026  RH  079%=      5-min Rain = 0
KPAD 100525Z 28010KT 01/M03 A3036 RMK A01 T00081026  RH  078%=      5-min Rain = 0
KPAD 100530Z 27010KT 01/M03 A3036 RMK A01 T00081027  RH  078%=      5-min Rain = 0
KPAD 100535Z 27010KT 01/M03 A3036 RMK A01 T00071027  RH  078%=      5-min Rain = 0
KPAD 100540Z 27010KT 01/M03 A3036 RMK A01 T00051028  RH  079%=      5-min Rain = 0
KPAD 100545Z 27009KT 00/M03 A3036 RMK A01 T00041028  RH  080%=      5-min Rain = 0
KPAD 100550Z 27010KT 01/M03 A3036 RMK A01 T00051027  RH  080%=      5-min Rain = 0
KPAD 100555Z 27009KT 01/M03 A3035 RMK A01 T00061027  RH  079%=      5-min Rain = 0

Page generated in 0.0167 seconds.